sensor_id;sensor_type;location;lat;lon;timestamp;pressure;altitude;pressure_sealevel;temperature;humidity
5283;BME280;15376;48.540;9.268;2023-05-21T00:01:49;97124.09;;;12.77;100.00
5283;BME280;15376;48.540;9.268;2023-05-21T00:04:14;97119.56;;;12.78;100.00
5283;BME280;15376;48.540;9.268;2023-05-21T00:06:40;97123.66;;;12.80;100.00
5283;BME280;15376;48.540;9.268;2023-05-21T00:09:05;97122.22;;;12.84;100.00
5283;BME280;15376;48.540;9.268;2023-05-21T00:11:31;97116.25;;;12.82;100.00
5283;BME280;15376;48.540;9.268;2023-05-21T00:13:57;97121.22;;;12.72;100.00
5283;BME280;15376;48.540;9.268;2023-05-21T00:16:23;97110.13;;;12.68;100.00
5283;BME280;15376;48.540;9.268;2023-05-21T00:18:49;97107.28;;;12.63;100.00
5283;BME280;15376;48.540;9.268;2023-05-21T00:21:15;97111.78;;;12.63;100.00
5283;BME280;15376;48.540;9.268;2023-05-21T00:23:44;97108.09;;;12.57;100.00
5283;BME280;15376;48.540;9.268;2023-05-21T00:26:09;97098.84;;;12.47;100.00
5283;BME280;15376;48.540;9.268;2023-05-21T00:28:35;97100.50;;;12.54;100.00
5283;BME280;15376;48.540;9.268;2023-05-21T00:31:00;97093.75;;;12.58;100.00
5283;BME280;15376;48.540;9.268;2023-05-21T00:33:26;97098.66;;;12.61;100.00
5283;BME280;15376;48.540;9.268;2023-05-21T00:35:53;97094.34;;;12.60;100.00
5283;BME280;15376;48.540;9.268;2023-05-21T00:38:18;97102.16;;;12.62;100.00
5283;BME280;15376;48.540;9.268;2023-05-21T00:40:44;97084.72;;;12.59;100.00
5283;BME280;15376;48.540;9.268;2023-05-21T00:43:11;97079.00;;;12.62;100.00
5283;BME280;15376;48.540;9.268;2023-05-21T00:45:39;97087.81;;;12.69;100.00
5283;BME280;15376;48.540;9.268;2023-05-21T00:48:05;97070.38;;;12.54;100.00
5283;BME280;15376;48.540;9.268;2023-05-21T00:50:31;97080.22;;;12.53;100.00
5283;BME280;15376;48.540;9.268;2023-05-21T00:52:57;97086.56;;;12.59;100.00
5283;BME280;15376;48.540;9.268;2023-05-21T00:55:24;97082.47;;;12.63;100.00
5283;BME280;15376;48.540;9.268;2023-05-21T00:57:49;97076.94;;;12.64;100.00
5283;BME280;15376;48.540;9.268;2023-05-21T01:00:15;97080.22;;;12.60;100.00
5283;BME280;15376;48.540;9.268;2023-05-21T01:02:41;97080.44;;;12.65;100.00
5283;BME280;15376;48.540;9.268;2023-05-21T01:05:08;97069.56;;;12.60;100.00
5283;BME280;15376;48.540;9.268;2023-05-21T01:07:37;97090.06;;;12.66;100.00
5283;BME280;15376;48.540;9.268;2023-05-21T01:10:05;97073.03;;;12.54;100.00
5283;BME280;15376;48.540;9.268;2023-05-21T01:12:32;97065.47;;;12.51;100.00
5283;BME280;15376;48.540;9.268;2023-05-21T01:14:59;97074.47;;;12.56;100.00
5283;BME280;15376;48.540;9.268;2023-05-21T01:17:27;97080.00;;;12.55;100.00
5283;BME280;15376;48.540;9.268;2023-05-21T01:19:55;97072.44;;;12.52;100.00
5283;BME280;15376;48.540;9.268;2023-05-21T01:22:22;97080.44;;;12.39;100.00
5283;BME280;15376;48.540;9.268;2023-05-21T01:24:49;97052.75;;;12.13;100.00
5283;BME280;15376;48.540;9.268;2023-05-21T01:27:15;97083.88;;;12.19;100.00
5283;BME280;15376;48.540;9.268;2023-05-21T01:29:40;97083.47;;;12.09;100.00
5283;BME280;15376;48.540;9.268;2023-05-21T01:34:59;97083.44;;;11.96;100.00
5283;BME280;15376;48.540;9.268;2023-05-21T01:37:30;97067.47;;;11.89;100.00
5283;BME280;15376;48.540;9.268;2023-05-21T01:40:09;97069.31;;;11.89;100.00
5283;BME280;15376;48.540;9.268;2023-05-21T01:42:36;97067.50;;;11.96;100.00
5283;BME280;15376;48.540;9.268;2023-05-21T01:45:03;97076.50;;;11.95;100.00
5283;BME280;15376;48.540;9.268;2023-05-21T01:47:32;97073.63;;;11.90;100.00
5283;BME280;15376;48.540;9.268;2023-05-21T01:49:58;97069.09;;;11.90;100.00
5283;BME280;15376;48.540;9.268;2023-05-21T01:52:25;97071.97;;;11.89;100.00
5283;BME280;15376;48.540;9.268;2023-05-21T01:54:50;97048.97;;;11.75;100.00
5283;BME280;15376;48.540;9.268;2023-05-21T01:57:19;97067.44;;;11.83;100.00
5283;BME280;15376;48.540;9.268;2023-05-21T01:59:44;97052.91;;;11.79;100.00
5283;BME280;15376;48.540;9.268;2023-05-21T02:02:09;97067.88;;;11.93;100.00
5283;BME280;15376;48.540;9.268;2023-05-21T02:04:35;97073.81;;;11.95;100.00
5283;BME280;15376;48.540;9.268;2023-05-21T02:07:01;97049.84;;;11.82;100.00
5283;BME280;15376;48.540;9.268;2023-05-21T02:09:26;97073.00;;;11.88;100.00
5283;BME280;15376;48.540;9.268;2023-05-21T02:11:52;97069.06;;;11.77;100.00
5283;BME280;15376;48.540;9.268;2023-05-21T02:14:17;97070.25;;;11.75;100.00
5283;BME280;15376;48.540;9.268;2023-05-21T02:16:42;97078.41;;;11.66;100.00
5283;BME280;15376;48.540;9.268;2023-05-21T02:19:08;97082.47;;;11.62;100.00
5283;BME280;15376;48.540;9.268;2023-05-21T02:21:34;97081.66;;;11.55;100.00
5283;BME280;15376;48.540;9.268;2023-05-21T02:24:00;97057.06;;;11.40;100.00
5283;BME280;15376;48.540;9.268;2023-05-21T02:26:25;97062.75;;;11.37;100.00
5283;BME280;15376;48.540;9.268;2023-05-21T02:28:51;97077.50;;;11.40;100.00
5283;BME280;15376;48.540;9.268;2023-05-21T02:31:17;97067.47;;;11.35;100.00
5283;BME280;15376;48.540;9.268;2023-05-21T02:33:42;97041.03;;;11.27;100.00
5283;BME280;15376;48.540;9.268;2023-05-21T02:36:07;97061.19;;;11.49;100.00
5283;BME280;15376;48.540;9.268;2023-05-21T02:38:40;97067.97;;;11.58;100.00
5283;BME280;15376;48.540;9.268;2023-05-21T02:41:08;97060.19;;;11.57;100.00
5283;BME280;15376;48.540;9.268;2023-05-21T02:43:35;97056.47;;;11.51;100.00
5283;BME280;15376;48.540;9.268;2023-05-21T02:46:00;97043.63;;;11.55;100.00
5283;BME280;15376;48.540;9.268;2023-05-21T02:48:25;97040.94;;;11.61;100.00
5283;BME280;15376;48.540;9.268;2023-05-21T02:50:51;97039.94;;;11.62;100.00
5283;BME280;15376;48.540;9.268;2023-05-21T02:53:16;97057.34;;;11.72;100.00
5283;BME280;15376;48.540;9.268;2023-05-21T02:55:41;97046.50;;;11.66;100.00
5283;BME280;15376;48.540;9.268;2023-05-21T02:58:07;97060.81;;;11.65;100.00
5283;BME280;15376;48.540;9.268;2023-05-21T03:00:32;97051.00;;;11.59;100.00
5283;BME280;15376;48.540;9.268;2023-05-21T03:02:57;97044.84;;;11.52;100.00
5283;BME280;15376;48.540;9.268;2023-05-21T03:05:23;97049.91;;;11.47;100.00
5283;BME280;15376;48.540;9.268;2023-05-21T03:07:48;97055.00;;;11.42;100.00
5283;BME280;15376;48.540;9.268;2023-05-21T03:10:14;97059.28;;;11.36;100.00
5283;BME280;15376;48.540;9.268;2023-05-21T03:12:39;97065.38;;;11.30;100.00
5283;BME280;15376;48.540;9.268;2023-05-21T03:15:05;97057.38;;;11.24;100.00
5283;BME280;15376;48.540;9.268;2023-05-21T03:17:30;97040.81;;;11.22;100.00
5283;BME280;15376;48.540;9.268;2023-05-21T03:19:56;97047.59;;;11.31;100.00
5283;BME280;15376;48.540;9.268;2023-05-21T03:22:21;97058.25;;;11.38;100.00
5283;BME280;15376;48.540;9.268;2023-05-21T03:24:46;97054.78;;;11.37;100.00
5283;BME280;15376;48.540;9.268;2023-05-21T03:27:12;97044.28;;;11.22;100.00
5283;BME280;15376;48.540;9.268;2023-05-21T03:29:38;97052.44;;;11.21;100.00
5283;BME280;15376;48.540;9.268;2023-05-21T03:32:04;97034.88;;;11.20;100.00
5283;BME280;15376;48.540;9.268;2023-05-21T03:34:30;97039.41;;;11.26;100.00
5283;BME280;15376;48.540;9.268;2023-05-21T03:36:58;97038.59;;;11.32;100.00
5283;BME280;15376;48.540;9.268;2023-05-21T03:39:24;97041.47;;;11.30;100.00
5283;BME280;15376;48.540;9.268;2023-05-21T03:41:49;97041.63;;;11.16;100.00
5283;BME280;15376;48.540;9.268;2023-05-21T03:44:15;97040.53;;;11.03;100.00
5283;BME280;15376;48.540;9.268;2023-05-21T03:46:40;97034.31;;;10.90;100.00
5283;BME280;15376;48.540;9.268;2023-05-21T03:49:06;97030.69;;;10.97;100.00
5283;BME280;15376;48.540;9.268;2023-05-21T03:51:31;97047.25;;;10.99;100.00
5283;BME280;15376;48.540;9.268;2023-05-21T03:53:58;97035.75;;;10.92;100.00
5283;BME280;15376;48.540;9.268;2023-05-21T03:56:23;97043.19;;;11.03;100.00
5283;BME280;15376;48.540;9.268;2023-05-21T03:58:49;97036.84;;;11.05;100.00
5283;BME280;15376;48.540;9.268;2023-05-21T04:01:14;97060.44;;;11.21;100.00
5283;BME280;15376;48.540;9.268;2023-05-21T04:03:39;97032.78;;;11.09;100.00
5283;BME280;15376;48.540;9.268;2023-05-21T04:06:06;97061.28;;;11.28;100.00
5283;BME280;15376;48.540;9.268;2023-05-21T04:08:34;97039.59;;;11.18;100.00
5283;BME280;15376;48.540;9.268;2023-05-21T04:11:00;97029.91;;;11.03;100.00
5283;BME280;15376;48.540;9.268;2023-05-21T04:13:26;97046.31;;;11.14;100.00
5283;BME280;15376;48.540;9.268;2023-05-21T04:15:52;97062.69;;;11.24;100.00
5283;BME280;15376;48.540;9.268;2023-05-21T04:18:18;97055.34;;;11.26;100.00
5283;BME280;15376;48.540;9.268;2023-05-21T04:20:44;97081.97;;;11.32;100.00
5283;BME280;15376;48.540;9.268;2023-05-21T04:23:10;97069.25;;;11.28;100.00
5283;BME280;15376;48.540;9.268;2023-05-21T04:25:36;97069.25;;;11.28;100.00
5283;BME280;15376;48.540;9.268;2023-05-21T04:28:03;97084.03;;;11.37;100.00
5283;BME280;15376;48.540;9.268;2023-05-21T04:30:28;97070.50;;;11.32;100.00
5283;BME280;15376;48.540;9.268;2023-05-21T04:32:53;97083.63;;;11.40;100.00
5283;BME280;15376;48.540;9.268;2023-05-21T04:35:19;97092.63;;;11.39;100.00
5283;BME280;15376;48.540;9.268;2023-05-21T04:37:44;97093.69;;;11.45;100.00
5283;BME280;15376;48.540;9.268;2023-05-21T04:40:13;97095.13;;;11.47;100.00
5283;BME280;15376;48.540;9.268;2023-05-21T04:42:45;97103.38;;;11.59;100.00
5283;BME280;15376;48.540;9.268;2023-05-21T04:45:15;97096.00;;;11.67;100.00
5283;BME280;15376;48.540;9.268;2023-05-21T04:47:41;97103.00;;;11.75;100.00
5283;BME280;15376;48.540;9.268;2023-05-21T04:50:07;97095.91;;;11.82;100.00
5283;BME280;15376;48.540;9.268;2023-05-21T04:52:32;97097.34;;;11.85;100.00
5283;BME280;15376;48.540;9.268;2023-05-21T04:54:59;97097.56;;;11.96;100.00
5283;BME280;15376;48.540;9.268;2023-05-21T04:57:25;97089.19;;;11.99;100.00
5283;BME280;15376;48.540;9.268;2023-05-21T04:59:52;97087.75;;;12.03;100.00
5283;BME280;15376;48.540;9.268;2023-05-21T05:02:17;97092.28;;;12.16;100.00
5283;BME280;15376;48.540;9.268;2023-05-21T05:04:43;97090.47;;;12.30;100.00
5283;BME280;15376;48.540;9.268;2023-05-21T05:07:08;97103.16;;;12.41;100.00
5283;BME280;15376;48.540;9.268;2023-05-21T05:09:34;97089.00;;;12.41;100.00
5283;BME280;15376;48.540;9.268;2023-05-21T05:11:59;97100.50;;;12.61;100.00
5283;BME280;15376;48.540;9.268;2023-05-21T05:14:25;97098.47;;;12.69;100.00
5283;BME280;15376;48.540;9.268;2023-05-21T05:16:50;97100.09;;;12.77;100.00
5283;BME280;15376;48.540;9.268;2023-05-21T05:19:16;97089.84;;;12.74;100.00
5283;BME280;15376;48.540;9.268;2023-05-21T05:21:41;97096.38;;;12.85;100.00
5283;BME280;15376;48.540;9.268;2023-05-21T05:24:06;97091.66;;;12.87;100.00
5283;BME280;15376;48.540;9.268;2023-05-21T05:26:32;97073.81;;;12.87;100.00
5283;BME280;15376;48.540;9.268;2023-05-21T05:28:57;97085.91;;;13.03;100.00
5283;BME280;15376;48.540;9.268;2023-05-21T05:31:22;97092.88;;;13.11;100.00
5283;BME280;15376;48.540;9.268;2023-05-21T05:33:48;97087.56;;;13.17;100.00
5283;BME280;15376;48.540;9.268;2023-05-21T05:36:13;97079.13;;;13.14;100.00
5283;BME280;15376;48.540;9.268;2023-05-21T05:38:39;97079.13;;;13.20;100.00
5283;BME280;15376;48.540;9.268;2023-05-21T05:41:04;97073.34;;;13.30;100.00
5283;BME280;15376;48.540;9.268;2023-05-21T05:43:29;97085.84;;;13.36;100.00
5283;BME280;15376;48.540;9.268;2023-05-21T05:45:55;97074.13;;;13.50;100.00
5283;BME280;15376;48.540;9.268;2023-05-21T05:48:20;97083.25;;;13.67;100.00
5283;BME280;15376;48.540;9.268;2023-05-21T05:50:46;97080.78;;;13.73;100.00
5283;BME280;15376;48.540;9.268;2023-05-21T05:53:12;97081.97;;;13.83;100.00
5283;BME280;15376;48.540;9.268;2023-05-21T05:55:39;97087.25;;;13.90;100.00
5283;BME280;15376;48.540;9.268;2023-05-21T05:58:05;97094.16;;;14.04;100.00
5283;BME280;15376;48.540;9.268;2023-05-21T06:00:30;97085.88;;;14.12;100.00
5283;BME280;15376;48.540;9.268;2023-05-21T06:02:55;97084.97;;;14.31;100.00
5283;BME280;15376;48.540;9.268;2023-05-21T06:05:21;97080.38;;;14.39;100.00
5283;BME280;15376;48.540;9.268;2023-05-21T06:07:46;97075.44;;;14.42;100.00
5283;BME280;15376;48.540;9.268;2023-05-21T06:10:12;97076.03;;;14.44;100.00
5283;BME280;15376;48.540;9.268;2023-05-21T06:12:37;97087.78;;;14.68;100.00
5283;BME280;15376;48.540;9.268;2023-05-21T06:15:03;97070.66;;;14.76;100.00
5283;BME280;15376;48.540;9.268;2023-05-21T06:17:29;97077.13;;;14.86;100.00
5283;BME280;15376;48.540;9.268;2023-05-21T06:19:55;97071.22;;;15.02;100.00
5283;BME280;15376;48.540;9.268;2023-05-21T06:22:21;97080.88;;;15.22;100.00
5283;BME280;15376;48.540;9.268;2023-05-21T06:24:46;97080.34;;;15.31;100.00
5283;BME280;15376;48.540;9.268;2023-05-21T06:27:11;97073.75;;;15.34;100.00
5283;BME280;15376;48.540;9.268;2023-05-21T06:29:37;97076.28;;;15.47;100.00
5283;BME280;15376;48.540;9.268;2023-05-21T06:32:05;97063.81;;;15.59;100.00
5283;BME280;15376;48.540;9.268;2023-05-21T06:34:31;97073.66;;;15.77;100.00
5283;BME280;15376;48.540;9.268;2023-05-21T06:36:56;97057.59;;;15.77;100.00
5283;BME280;15376;48.540;9.268;2023-05-21T06:39:21;97066.53;;;16.01;100.00
5283;BME280;15376;48.540;9.268;2023-05-21T06:41:48;97074.44;;;16.26;100.00
5283;BME280;15376;48.540;9.268;2023-05-21T06:44:14;97065.94;;;16.41;100.00
5283;BME280;15376;48.540;9.268;2023-05-21T06:46:41;97075.91;;;16.63;100.00
5283;BME280;15376;48.540;9.268;2023-05-21T06:49:06;97042.09;;;16.51;100.00
5283;BME280;15376;48.540;9.268;2023-05-21T06:51:32;97053.78;;;16.68;100.00
5283;BME280;15376;48.540;9.268;2023-05-21T06:53:57;97065.91;;;16.82;100.00
5283;BME280;15376;48.540;9.268;2023-05-21T06:56:23;97075.38;;;16.96;100.00
5283;BME280;15376;48.540;9.268;2023-05-21T06:58:48;97078.28;;;17.07;100.00
5283;BME280;15376;48.540;9.268;2023-05-21T07:01:14;97068.97;;;16.97;100.00
5283;BME280;15376;48.540;9.268;2023-05-21T07:03:40;97061.13;;;16.96;100.00
5283;BME280;15376;48.540;9.268;2023-05-21T07:06:05;97078.25;;;17.30;100.00
5283;BME280;15376;48.540;9.268;2023-05-21T07:08:31;97081.88;;;17.36;100.00
5283;BME280;15376;48.540;9.268;2023-05-21T07:10:56;97086.75;;;17.50;100.00
5283;BME280;15376;48.540;9.268;2023-05-21T07:13:21;97077.38;;;17.64;100.00
5283;BME280;15376;48.540;9.268;2023-05-21T07:15:47;97069.31;;;18.05;100.00
5283;BME280;15376;48.540;9.268;2023-05-21T07:18:12;97063.84;;;18.28;100.00
5283;BME280;15376;48.540;9.268;2023-05-21T07:20:37;97076.31;;;18.51;100.00
5283;BME280;15376;48.540;9.268;2023-05-21T07:23:03;97071.03;;;18.56;100.00
5283;BME280;15376;48.540;9.268;2023-05-21T07:25:29;97059.50;;;18.72;100.00
5283;BME280;15376;48.540;9.268;2023-05-21T07:27:54;97071.44;;;18.81;100.00
5283;BME280;15376;48.540;9.268;2023-05-21T07:30:19;97073.00;;;18.94;100.00
5283;BME280;15376;48.540;9.268;2023-05-21T07:32:45;97072.69;;;19.29;100.00
5283;BME280;15376;48.540;9.268;2023-05-21T07:35:10;97059.47;;;19.06;100.00
5283;BME280;15376;48.540;9.268;2023-05-21T07:37:35;97024.91;;;18.81;100.00
5283;BME280;15376;48.540;9.268;2023-05-21T07:40:01;97062.44;;;18.71;100.00
5283;BME280;15376;48.540;9.268;2023-05-21T07:42:26;97060.44;;;19.16;100.00
5283;BME280;15376;48.540;9.268;2023-05-21T07:44:51;97036.56;;;19.25;100.00
5283;BME280;15376;48.540;9.268;2023-05-21T07:47:17;97069.16;;;18.90;100.00
5283;BME280;15376;48.540;9.268;2023-05-21T07:49:43;97050.56;;;19.05;100.00
5283;BME280;15376;48.540;9.268;2023-05-21T07:52:08;97057.25;;;19.03;100.00
5283;BME280;15376;48.540;9.268;2023-05-21T07:54:33;97055.53;;;19.13;100.00
5283;BME280;15376;48.540;9.268;2023-05-21T07:56:59;97048.03;;;18.98;100.00
5283;BME280;15376;48.540;9.268;2023-05-21T07:59:27;97061.75;;;19.36;100.00
5283;BME280;15376;48.540;9.268;2023-05-21T08:01:52;97069.47;;;19.49;99.18
5283;BME280;15376;48.540;9.268;2023-05-21T08:04:17;97065.56;;;19.40;97.44
5283;BME280;15376;48.540;9.268;2023-05-21T08:06:43;97065.81;;;19.38;95.34
5283;BME280;15376;48.540;9.268;2023-05-21T08:09:08;97061.16;;;19.12;98.58
5283;BME280;15376;48.540;9.268;2023-05-21T08:11:33;97066.31;;;19.13;99.62
5283;BME280;15376;48.540;9.268;2023-05-21T08:13:59;97067.72;;;19.21;99.41
5283;BME280;15376;48.540;9.268;2023-05-21T08:16:24;97049.00;;;19.09;100.00
5283;BME280;15376;48.540;9.268;2023-05-21T08:18:50;97071.38;;;19.10;100.00
5283;BME280;15376;48.540;9.268;2023-05-21T08:21:15;97065.28;;;19.19;100.00
5283;BME280;15376;48.540;9.268;2023-05-21T08:23:41;97057.56;;;19.45;99.87
5283;BME280;15376;48.540;9.268;2023-05-21T08:26:07;97054.63;;;19.46;98.67
5283;BME280;15376;48.540;9.268;2023-05-21T08:28:33;97048.03;;;19.37;99.31
5283;BME280;15376;48.540;9.268;2023-05-21T08:31:00;97055.06;;;19.60;98.79
5283;BME280;15376;48.540;9.268;2023-05-21T08:33:26;97058.22;;;19.74;97.92
5283;BME280;15376;48.540;9.268;2023-05-21T08:35:51;97038.97;;;19.65;99.74
5283;BME280;15376;48.540;9.268;2023-05-21T08:38:17;97048.94;;;19.86;100.00
5283;BME280;15376;48.540;9.268;2023-05-21T08:40:42;97054.53;;;19.80;100.00
5283;BME280;15376;48.540;9.268;2023-05-21T08:43:07;97053.66;;;20.01;100.00
5283;BME280;15376;48.540;9.268;2023-05-21T08:45:40;97046.28;;;20.18;99.40
5283;BME280;15376;48.540;9.268;2023-05-21T08:48:08;97060.13;;;20.54;99.32
5283;BME280;15376;48.540;9.268;2023-05-21T08:50:35;97057.91;;;20.46;98.51
5283;BME280;15376;48.540;9.268;2023-05-21T08:53:01;97059.94;;;20.60;97.51
5283;BME280;15376;48.540;9.268;2023-05-21T08:55:26;97057.47;;;20.59;97.24
5283;BME280;15376;48.540;9.268;2023-05-21T08:57:53;97049.41;;;20.59;93.81
5283;BME280;15376;48.540;9.268;2023-05-21T09:00:19;97045.13;;;20.63;93.58
5283;BME280;15376;48.540;9.268;2023-05-21T09:02:49;97064.91;;;20.74;94.29
5283;BME280;15376;48.540;9.268;2023-05-21T09:05:15;97066.97;;;20.61;93.83
5283;BME280;15376;48.540;9.268;2023-05-21T09:07:55;97062.41;;;20.67;94.00
5283;BME280;15376;48.540;9.268;2023-05-21T09:10:30;97041.50;;;20.52;95.72
5283;BME280;15376;48.540;9.268;2023-05-21T09:12:58;97068.50;;;20.89;94.66
5283;BME280;15376;48.540;9.268;2023-05-21T09:15:24;97042.13;;;20.96;94.30
5283;BME280;15376;48.540;9.268;2023-05-21T09:17:49;97048.47;;;21.17;92.81
5283;BME280;15376;48.540;9.268;2023-05-21T09:20:15;97052.06;;;21.33;91.89
5283;BME280;15376;48.540;9.268;2023-05-21T09:22:47;97064.28;;;21.41;90.30
5283;BME280;15376;48.540;9.268;2023-05-21T09:25:22;97061.03;;;21.39;91.59
5283;BME280;15376;48.540;9.268;2023-05-21T09:27:48;97067.19;;;21.29;91.08
5283;BME280;15376;48.540;9.268;2023-05-21T09:30:15;97056.81;;;21.16;91.06
5283;BME280;15376;48.540;9.268;2023-05-21T09:32:43;97064.97;;;21.21;91.85
5283;BME280;15376;48.540;9.268;2023-05-21T09:35:11;97064.53;;;20.97;90.77
5283;BME280;15376;48.540;9.268;2023-05-21T09:37:56;97017.19;;;20.79;91.67
5283;BME280;15376;48.540;9.268;2023-05-21T09:40:22;97069.16;;;21.02;93.32
5283;BME280;15376;48.540;9.268;2023-05-21T09:42:49;97069.41;;;21.00;90.85
5283;BME280;15376;48.540;9.268;2023-05-21T09:47:44;97064.59;;;20.70;92.07
5283;BME280;15376;48.540;9.268;2023-05-21T09:50:20;97066.53;;;20.80;92.39
5283;BME280;15376;48.540;9.268;2023-05-21T09:52:47;97064.66;;;20.75;93.59
5283;BME280;15376;48.540;9.268;2023-05-21T09:55:15;97052.88;;;20.91;92.97
5283;BME280;15376;48.540;9.268;2023-05-21T09:57:44;97075.03;;;21.30;91.03
5283;BME280;15376;48.540;9.268;2023-05-21T10:00:24;97073.63;;;21.23;89.74
5283;BME280;15376;48.540;9.268;2023-05-21T10:02:55;97073.03;;;21.16;90.65
5283;BME280;15376;48.540;9.268;2023-05-21T10:05:25;97068.34;;;21.43;90.36
5283;BME280;15376;48.540;9.268;2023-05-21T10:07:56;97079.00;;;21.70;88.22
5283;BME280;15376;48.540;9.268;2023-05-21T10:10:23;97068.34;;;22.06;88.06
5283;BME280;15376;48.540;9.268;2023-05-21T10:12:57;97072.41;;;22.13;86.57
5283;BME280;15376;48.540;9.268;2023-05-21T10:15:23;97067.34;;;22.47;84.27
5283;BME280;15376;48.540;9.268;2023-05-21T10:17:53;97065.97;;;22.40;84.24
5283;BME280;15376;48.540;9.268;2023-05-21T10:20:19;97058.69;;;22.66;83.88
5283;BME280;15376;48.540;9.268;2023-05-21T10:22:46;97062.78;;;22.99;82.50
5283;BME280;15376;48.540;9.268;2023-05-21T10:25:12;97033.53;;;23.01;81.36
5283;BME280;15376;48.540;9.268;2023-05-21T10:27:38;97067.84;;;23.36;80.35
5283;BME280;15376;48.540;9.268;2023-05-21T10:30:07;97061.88;;;23.44;80.33
5283;BME280;15376;48.540;9.268;2023-05-21T10:32:33;97066.72;;;24.16;76.61
5283;BME280;15376;48.540;9.268;2023-05-21T10:34:59;97061.25;;;23.72;78.12
5283;BME280;15376;48.540;9.268;2023-05-21T10:37:26;97074.56;;;24.28;74.31
5283;BME280;15376;48.540;9.268;2023-05-21T10:39:53;97063.19;;;24.21;75.50
5283;BME280;15376;48.540;9.268;2023-05-21T10:47:39;97066.72;;;24.94;71.65
5283;BME280;15376;48.540;9.268;2023-05-21T10:53:03;97056.88;;;25.33;68.79
5283;BME280;15376;48.540;9.268;2023-05-21T10:55:49;97052.38;;;25.71;68.32
5283;BME280;15376;48.540;9.268;2023-05-21T11:01:36;97044.16;;;25.52;67.83
5283;BME280;15376;48.540;9.268;2023-05-21T11:04:05;97044.03;;;25.86;69.14
5283;BME280;15376;48.540;9.268;2023-05-21T11:06:31;97034.59;;;26.21;67.10
5283;BME280;15376;48.540;9.268;2023-05-21T11:09:00;97030.22;;;25.82;67.92
5283;BME280;15376;48.540;9.268;2023-05-21T11:11:42;97055.00;;;26.00;67.90
5283;BME280;15376;48.540;9.268;2023-05-21T11:16:51;97035.00;;;25.90;68.74
5283;BME280;15376;48.540;9.268;2023-05-21T11:19:17;97053.34;;;26.22;65.69
5283;BME280;15376;48.540;9.268;2023-05-21T11:21:42;97054.47;;;25.79;65.06
5283;BME280;15376;48.540;9.268;2023-05-21T11:24:17;97039.78;;;25.56;68.44
5283;BME280;15376;48.540;9.268;2023-05-21T11:29:15;97049.75;;;25.13;68.92
5283;BME280;15376;48.540;9.268;2023-05-21T11:31:47;97043.94;;;24.90;68.53
5283;BME280;15376;48.540;9.268;2023-05-21T11:34:23;97027.16;;;24.83;67.92
5283;BME280;15376;48.540;9.268;2023-05-21T11:39:52;97054.66;;;25.11;63.92
5283;BME280;15376;48.540;9.268;2023-05-21T11:42:34;97056.66;;;25.00;64.19
5283;BME280;15376;48.540;9.268;2023-05-21T11:45:03;97055.81;;;24.71;66.27
5283;BME280;15376;48.540;9.268;2023-05-21T11:47:29;97051.25;;;24.61;67.43
5283;BME280;15376;48.540;9.268;2023-05-21T11:50:00;97045.66;;;24.47;70.13
5283;BME280;15376;48.540;9.268;2023-05-21T11:52:30;97040.75;;;24.83;66.33
5283;BME280;15376;48.540;9.268;2023-05-21T11:54:56;97056.09;;;24.69;65.52
5283;BME280;15376;48.540;9.268;2023-05-21T11:57:25;97051.38;;;24.80;66.72
5283;BME280;15376;48.540;9.268;2023-05-21T11:59:52;97054.88;;;24.80;66.41
5283;BME280;15376;48.540;9.268;2023-05-21T12:02:19;97056.19;;;24.88;64.37
5283;BME280;15376;48.540;9.268;2023-05-21T12:04:47;97052.09;;;25.19;63.61
5283;BME280;15376;48.540;9.268;2023-05-21T12:07:14;97057.75;;;25.52;62.71
5283;BME280;15376;48.540;9.268;2023-05-21T12:09:47;97052.63;;;24.92;63.56
5283;BME280;15376;48.540;9.268;2023-05-21T12:12:17;97052.00;;;24.38;65.09
5283;BME280;15376;48.540;9.268;2023-05-21T12:14:45;97045.84;;;24.12;66.89
5283;BME280;15376;48.540;9.268;2023-05-21T12:17:10;97041.00;;;24.04;67.20
5283;BME280;15376;48.540;9.268;2023-05-21T12:19:38;97042.91;;;24.03;68.51
5283;BME280;15376;48.540;9.268;2023-05-21T12:22:05;97023.56;;;24.25;67.84
5283;BME280;15376;48.540;9.268;2023-05-21T12:24:30;97035.75;;;24.22;66.77
5283;BME280;15376;48.540;9.268;2023-05-21T12:26:57;97023.13;;;24.03;65.60
5283;BME280;15376;48.540;9.268;2023-05-21T12:29:30;97049.00;;;23.85;67.98
5283;BME280;15376;48.540;9.268;2023-05-21T12:32:00;97046.78;;;23.97;67.06
5283;BME280;15376;48.540;9.268;2023-05-21T12:37:19;97049.03;;;24.68;69.36
5283;BME280;15376;48.540;9.268;2023-05-21T12:39:47;97050.31;;;24.42;64.93
5283;BME280;15376;48.540;9.268;2023-05-21T12:42:14;97054.22;;;24.20;67.25
5283;BME280;15376;48.540;9.268;2023-05-21T12:44:44;97052.06;;;24.17;65.96
5283;BME280;15376;48.540;9.268;2023-05-21T12:47:11;97047.38;;;23.84;67.83
5283;BME280;15376;48.540;9.268;2023-05-21T12:49:42;97046.81;;;23.87;67.02
5283;BME280;15376;48.540;9.268;2023-05-21T12:52:13;97059.34;;;23.73;67.50
5283;BME280;15376;48.540;9.268;2023-05-21T12:54:41;97061.53;;;23.66;68.99
5283;BME280;15376;48.540;9.268;2023-05-21T12:57:13;97038.81;;;23.46;68.51
5283;BME280;15376;48.540;9.268;2023-05-21T12:59:58;97045.59;;;23.59;69.51
5283;BME280;15376;48.540;9.268;2023-05-21T13:02:30;97048.47;;;23.78;68.09
5283;BME280;15376;48.540;9.268;2023-05-21T13:05:00;97053.91;;;23.78;66.88
5283;BME280;15376;48.540;9.268;2023-05-21T13:07:27;97047.34;;;23.94;68.60
5283;BME280;15376;48.540;9.268;2023-05-21T13:09:54;97047.91;;;23.86;66.60
5283;BME280;15376;48.540;9.268;2023-05-21T13:12:20;97053.22;;;24.01;67.17
5283;BME280;15376;48.540;9.268;2023-05-21T13:14:47;97043.97;;;24.12;68.17
5283;BME280;15376;48.540;9.268;2023-05-21T13:17:13;97053.09;;;24.32;65.78
5283;BME280;15376;48.540;9.268;2023-05-21T13:19:38;97057.50;;;24.17;67.00
5283;BME280;15376;48.540;9.268;2023-05-21T13:22:04;97048.91;;;24.00;65.49
5283;BME280;15376;48.540;9.268;2023-05-21T13:24:31;97049.59;;;23.72;67.61
5283;BME280;15376;48.540;9.268;2023-05-21T13:26:56;97049.31;;;23.68;66.83
5283;BME280;15376;48.540;9.268;2023-05-21T13:29:22;97042.06;;;23.48;68.48
5283;BME280;15376;48.540;9.268;2023-05-21T13:31:47;97047.63;;;23.87;66.74